Olympic National Park, WA

9:57 PM PST on November 22, 2014 (GMT -0800)
Lake Dawn | Change Station
CLOSE
Current Station
Personal Weather Station
Location: Port Angeles, WA
Elevation: 1864 ft
Nearby Weather Stations

Elev 1864 ft 48.04 °N, 123.43 °W | Updated 12 minutes ago

Overcast
Overcast
37.4 °F
Feels Like 37 °F
N
2.2
Wind Variable Wind from NW
Gusts 2.2 mph

Today
High -- | Low -- °F
--% Chance of Precip.
Yesterday
High -- | Low -- °F
Precip. -- in
7:31 AM 4:28 PM
New Moon, 1% visible
Pressure 30.04 in
Visibility 10.0 miles
Clouds Mostly Cloudy 6000 ft
Overcast 7500 ft
Windchill 37 °F
Dew Point 37 °F
Humidity 99%
Rainfall 0.06 in
Snow Depth Not available.
UV 0 out of 12
Pollen .10 out of 12
Air Quality Not available.
Flu Activity Not available.
METAR KCLM 230453Z AUTO 26012G21KT 10SM BKN060 OVC075 08/03 A3003 RMK AO2 SLP172 T00780033 $

More Conditions Fewer Conditions

Pressure 30.04 in
Visibility 10.0 miles
Clouds Mostly Cloudy 6000 ft
Overcast 7500 ft
Windchill 37 °F
Dew Point 37 °F
Humidity 99%
Rainfall 0.06 in
Snow Depth Not available.
UV 0 out of 12
Pollen .10 out of 12
Air Quality Not available.
Flu Activity Not available.
METAR KCLM 230453Z AUTO 26012G21KT 10SM BKN060 OVC075 08/03 A3003 RMK AO2 SLP172 T00780033 $

More Conditions Fewer Conditions

10-Day Weather Forecast

Almanac

Astronomy

Nov. 22, 2014 Rise Set
Actual Time
Civil Twilight
Nautical Twilight
Astronomical Twilight
Moon
Length of Visible Light
Length of Day
Tomorrow will be .
, % of the Moon is Illuminated

Today's Extremes

State Highs State Lows

Community

WunderPhotos

Upload Photos

1,773,017 photos uploaded!

WunderBlogs® & News

Nearby

Air Quality

  Air Quality AQ Index Pollutant
Not available.

Snow Depth

Station Depth Elevation

Earthquake Activity

City Distance Mag. Time & Date
Minimum magnitude displayed is 2.5.

Coastal Water Temperatures

Place Temperature

Nearby Weather Stations